createdAt,value
2022-08-07T00:00:07.943Z,0.40
2022-08-07T00:02:41.602Z,0.50
2022-08-07T00:05:11.735Z,0.47
2022-08-07T00:07:40.909Z,0.50
2022-08-07T00:10:25.934Z,0.40
2022-08-07T00:12:57.997Z,0.40
2022-08-07T00:15:38.219Z,0.40
2022-08-07T00:18:24.017Z,0.50
2022-08-07T00:20:53.754Z,0.57
2022-08-07T00:23:21.820Z,0.50
2022-08-07T00:25:52.099Z,0.55
2022-08-07T00:28:33.426Z,0.60
2022-08-07T00:31:05.750Z,0.47
2022-08-07T00:33:34.597Z,0.60
2022-08-07T00:36:03.067Z,0.50
2022-08-07T00:38:31.651Z,0.63
2022-08-07T00:41:01.529Z,0.60
2022-08-07T00:44:00.627Z,0.52
2022-08-07T00:46:21.400Z,0.70
2022-08-07T00:48:49.862Z,0.75
2022-08-07T00:51:19.384Z,0.55
2022-08-07T00:53:50.762Z,0.52
2022-08-07T00:56:23.559Z,0.60
2022-08-07T00:58:58.690Z,0.70
2022-08-07T01:01:26.157Z,0.60
2022-08-07T01:03:56.180Z,0.75
2022-08-07T01:06:28.527Z,0.70
2022-08-07T01:08:58.376Z,0.80
2022-08-07T01:12:09.621Z,0.75
2022-08-07T01:14:15.537Z,0.30
2022-08-07T01:16:47.163Z,0.60
2022-08-07T01:19:19.651Z,0.60
2022-08-07T01:21:53.195Z,0.60
2022-08-07T01:24:25.475Z,0.50
2022-08-07T01:26:53.847Z,0.50
2022-08-07T01:29:33.711Z,0.60
2022-08-07T01:32:05.423Z,0.63
2022-08-07T01:34:35.074Z,0.70
2022-08-07T01:37:09.593Z,0.70
2022-08-07T01:39:40.504Z,1.00
2022-08-07T01:42:39.968Z,0.70
2022-08-07T01:45:17.762Z,0.80
2022-08-07T01:48:17.715Z,0.80
2022-08-07T01:50:40.196Z,0.95
2022-08-07T01:53:21.001Z,0.75
2022-08-07T01:56:10.694Z,0.80
2022-08-07T01:58:48.963Z,0.52
2022-08-07T02:02:02.795Z,0.70
2022-08-07T02:04:26.681Z,0.70
2022-08-07T02:07:01.349Z,0.80
2022-08-07T02:09:51.945Z,0.85
2022-08-07T02:12:22.221Z,0.60
2022-08-07T02:15:00.975Z,0.93
2022-08-07T02:17:40.269Z,0.82
2022-08-07T02:20:19.747Z,0.80
2022-08-07T02:26:10.225Z,0.93
2022-08-07T02:28:15.585Z,0.80
2022-08-07T02:30:55.062Z,1.00
2022-08-07T02:33:33.015Z,0.90
2022-08-07T02:36:29.815Z,0.90
2022-08-07T02:39:16.376Z,0.90
2022-08-07T02:41:54.949Z,0.90
2022-08-07T02:44:34.863Z,0.70
2022-08-07T02:47:06.882Z,0.80
2022-08-07T02:49:58.593Z,1.20
2022-08-07T02:52:32.236Z,1.05
2022-08-07T02:55:28.512Z,0.77
2022-08-07T02:58:15.557Z,0.80
2022-08-07T03:00:46.718Z,1.10
2022-08-07T03:03:22.727Z,0.77
2022-08-07T03:05:53.905Z,1.00
2022-08-07T03:08:26.957Z,1.00
2022-08-07T03:10:59.581Z,1.17
2022-08-07T03:13:50.019Z,0.90
2022-08-07T03:16:23.044Z,1.25
2022-08-07T03:18:56.497Z,0.90
2022-08-07T03:21:24.863Z,1.10
2022-08-07T03:24:20.157Z,0.80
2022-08-07T03:26:59.139Z,1.45
2022-08-07T03:29:49.343Z,1.00
2022-08-07T03:32:24.747Z,1.10
2022-08-07T03:35:16.660Z,0.98
2022-08-07T03:37:53.998Z,0.98
2022-08-07T03:40:30.999Z,1.17
2022-08-07T03:43:10.009Z,1.13
2022-08-07T03:45:47.666Z,0.98
2022-08-07T03:48:19.057Z,1.20
2022-08-07T03:50:56.146Z,1.60
2022-08-07T03:54:00.723Z,1.40
2022-08-07T03:56:33.382Z,1.00
2022-08-07T03:59:10.068Z,1.35
2022-08-07T04:01:45.543Z,0.90
2022-08-07T04:04:19.263Z,1.08
2022-08-07T04:06:52.455Z,1.20
2022-08-07T04:09:24.169Z,1.13
2022-08-07T04:12:24.713Z,1.20
2022-08-07T04:14:49.084Z,1.00
2022-08-07T04:17:21.906Z,1.00
2022-08-07T04:19:55.392Z,0.70
2022-08-07T04:22:28.855Z,1.42
2022-08-07T04:25:01.473Z,1.30
2022-08-07T04:27:35.830Z,1.17
2022-08-07T04:30:21.404Z,0.85
2022-08-07T04:33:07.308Z,0.82
2022-08-07T04:35:38.985Z,1.00
2022-08-07T04:38:13.192Z,1.10
2022-08-07T04:40:51.633Z,1.25
2022-08-07T04:44:10.711Z,1.70
2022-08-07T04:46:59.507Z,1.23
2022-08-07T04:49:47.489Z,1.10
2022-08-07T04:52:52.358Z,1.38
2022-08-07T04:58:15.618Z,1.58
2022-08-07T05:00:11.510Z,0.80
2022-08-07T05:02:46.541Z,1.38
2022-08-07T05:05:53.231Z,1.50
2022-08-07T05:08:59.816Z,1.40
2022-08-07T05:11:56.985Z,0.90
2022-08-07T05:14:53.825Z,1.27
2022-08-07T05:17:51.990Z,1.20
2022-08-07T05:20:23.904Z,1.33
2022-08-07T05:22:58.324Z,1.45
2022-08-07T05:26:04.140Z,1.10
2022-08-07T05:28:23.257Z,1.40
2022-08-07T05:30:58.305Z,1.77
2022-08-07T05:33:29.408Z,1.50
2022-08-07T05:35:58.316Z,1.77
2022-08-07T05:38:58.036Z,1.70
2022-08-07T05:41:18.282Z,1.45
2022-08-07T05:44:12.298Z,1.48
2022-08-07T05:46:43.737Z,1.30
2022-08-07T05:49:14.846Z,1.65
2022-08-07T05:51:47.597Z,1.55
2022-08-07T05:54:31.538Z,1.60
2022-08-07T05:57:09.179Z,1.80
2022-08-07T05:59:46.534Z,1.50
2022-08-07T06:02:29.575Z,1.65
2022-08-07T06:05:10.719Z,1.98
2022-08-07T06:08:14.461Z,1.65
2022-08-07T06:10:29.364Z,1.50
2022-08-07T06:12:56.928Z,1.77
2022-08-07T06:15:39.043Z,1.40
2022-08-07T06:18:15.815Z,1.45
2022-08-07T06:20:50.044Z,1.65
2022-08-07T06:24:37.268Z,1.73
2022-08-07T06:26:15.069Z,1.45
2022-08-07T06:28:53.043Z,1.58
2022-08-07T06:31:24.239Z,1.45
2022-08-07T06:34:08.791Z,1.77
2022-08-07T06:36:36.735Z,1.42
2022-08-07T06:40:15.632Z,1.50
2022-08-07T06:42:15.645Z,1.70
2022-08-07T06:45:18.229Z,1.50
2022-08-07T06:47:58.466Z,1.35
2022-08-07T06:50:33.278Z,1.30
2022-08-07T06:53:04.575Z,1.23
2022-08-07T06:55:48.078Z,1.23
2022-08-07T06:58:27.581Z,1.10
2022-08-07T07:01:06.213Z,1.40
2022-08-07T07:03:48.942Z,1.17
2022-08-07T07:06:26.045Z,1.15
2022-08-07T07:08:55.031Z,1.00
2022-08-07T07:12:09.011Z,1.48
2022-08-07T07:14:14.010Z,1.02
2022-08-07T07:16:49.865Z,1.50
2022-08-07T07:19:56.002Z,0.98
2022-08-07T07:22:34.020Z,1.10
2022-08-07T07:26:31.006Z,1.02
2022-08-07T07:28:07.540Z,0.80
2022-08-07T07:31:17.355Z,1.23
2022-08-07T07:33:56.923Z,1.00
2022-08-07T07:36:29.625Z,0.70
2022-08-07T07:39:02.489Z,0.80
2022-08-07T07:42:01.859Z,0.75
2022-08-07T07:44:25.974Z,0.77
2022-08-07T07:47:02.189Z,0.75
2022-08-07T07:50:34.812Z,0.85
2022-08-07T07:52:30.911Z,0.93
2022-08-07T07:54:59.162Z,0.50
2022-08-07T07:57:43.598Z,0.65
2022-08-07T08:00:29.416Z,0.60
2022-08-07T08:03:06.801Z,0.55
2022-08-07T08:05:54.565Z,0.45
2022-08-07T08:08:34.653Z,0.40
2022-08-07T08:11:05.757Z,0.60
2022-08-07T08:13:54.780Z,0.60
2022-08-07T08:16:50.320Z,0.50
2022-08-07T08:20:18.487Z,0.52
2022-08-07T08:22:36.453Z,0.60
2022-08-07T08:25:42.969Z,0.65
2022-08-07T08:28:24.100Z,0.50
2022-08-07T08:31:07.629Z,0.50
2022-08-07T08:33:43.858Z,0.50
2022-08-07T08:36:25.653Z,0.40
2022-08-07T08:39:02.104Z,0.57
2022-08-07T08:41:58.314Z,0.40
2022-08-07T08:44:54.430Z,0.68
2022-08-07T08:47:47.315Z,0.57
2022-08-07T08:50:39.723Z,0.40
2022-08-07T08:53:22.639Z,0.50
2022-08-07T08:59:12.810Z,0.60
2022-08-07T09:01:49.166Z,0.52
2022-08-07T09:04:36.538Z,0.50
2022-08-07T09:07:25.362Z,0.50
2022-08-07T09:10:19.449Z,0.60
2022-08-07T09:13:09.560Z,0.52
2022-08-07T09:16:24.188Z,0.50
2022-08-07T09:19:00.497Z,0.40
2022-08-07T09:24:27.201Z,0.47
2022-08-07T09:25:14.797Z,0.60
2022-08-07T09:28:01.268Z,0.68
2022-08-07T09:31:01.200Z,0.52
2022-08-07T09:33:52.572Z,0.40
2022-08-07T09:36:43.253Z,0.52
2022-08-07T09:39:52.848Z,0.60
2022-08-07T09:42:22.979Z,0.40
2022-08-07T09:49:59.577Z,0.30
2022-08-07T09:52:15.551Z,0.25
2022-08-07T09:55:01.577Z,0.20
2022-08-07T09:57:54.774Z,0.40
2022-08-07T10:00:29.895Z,0.38
2022-08-07T10:04:03.166Z,0.32
2022-08-07T10:07:00.000Z,0.30
2022-08-07T10:10:00.935Z,0.50
2022-08-07T10:12:52.607Z,0.50
2022-08-07T10:15:29.435Z,0.40
2022-08-07T10:19:00.748Z,0.50
2022-08-07T10:22:15.526Z,0.30
2022-08-07T10:24:50.502Z,0.50
2022-08-07T10:27:30.179Z,0.40
2022-08-07T10:30:29.249Z,0.40
2022-08-07T10:34:06.797Z,0.40
2022-08-07T10:36:45.479Z,0.40
2022-08-07T10:39:41.713Z,0.40
2022-08-07T10:42:39.355Z,0.50
2022-08-07T10:45:57.374Z,0.50
2022-08-07T10:51:39.468Z,0.60
2022-08-07T10:54:53.438Z,0.50
2022-08-07T10:57:39.707Z,0.60
2022-08-07T11:00:36.901Z,0.60
2022-08-07T11:03:17.040Z,0.50
2022-08-07T11:05:58.600Z,0.60
2022-08-07T11:08:29.239Z,0.50
2022-08-07T11:11:15.406Z,0.40
2022-08-07T11:14:44.810Z,0.57
2022-08-07T11:16:45.871Z,0.50
2022-08-07T11:19:53.066Z,0.50
2022-08-07T11:22:42.707Z,0.45
2022-08-07T11:25:35.964Z,0.60
2022-08-07T11:28:28.788Z,0.40
2022-08-07T11:31:22.323Z,0.50
2022-08-07T11:34:00.051Z,0.50
2022-08-07T11:36:39.926Z,0.50
2022-08-07T11:39:19.933Z,0.57
2022-08-07T11:42:16.973Z,0.50
2022-08-07T11:44:57.846Z,0.63
2022-08-07T11:47:59.056Z,0.40
2022-08-07T11:50:58.049Z,0.50
2022-08-07T11:54:00.675Z,0.57
2022-08-07T11:56:57.907Z,0.50
2022-08-07T12:00:11.440Z,0.60
2022-08-07T12:03:44.828Z,0.60
2022-08-07T12:06:37.674Z,0.60
2022-08-07T12:09:26.531Z,0.68
2022-08-07T12:12:10.924Z,0.40
2022-08-07T12:14:56.217Z,0.60
2022-08-07T12:17:58.769Z,0.60
2022-08-07T12:20:38.300Z,0.77
2022-08-07T12:24:06.105Z,0.57
2022-08-07T12:26:29.843Z,0.60
2022-08-07T12:29:48.381Z,0.70
2022-08-07T12:32:46.315Z,0.70
2022-08-07T12:35:19.312Z,0.60
2022-08-07T12:38:10.385Z,0.50
2022-08-07T12:44:02.159Z,0.50
2022-08-07T12:46:26.346Z,0.65
2022-08-07T12:49:25.486Z,0.50
2022-08-07T12:52:22.899Z,0.60
2022-08-07T12:55:40.825Z,0.50
2022-08-07T12:58:12.958Z,0.40
2022-08-07T13:01:00.237Z,0.40
2022-08-07T13:04:02.793Z,0.40
2022-08-07T13:07:06.695Z,0.50
2022-08-07T13:10:19.600Z,0.32
2022-08-07T13:13:04.311Z,0.40
2022-08-07T13:15:47.764Z,0.40
2022-08-07T13:18:59.907Z,0.47
2022-08-07T13:21:54.891Z,0.40
2022-08-07T13:24:36.236Z,0.40
2022-08-07T13:27:20.634Z,0.40
2022-08-07T13:30:06.785Z,0.55
2022-08-07T13:32:59.638Z,0.50
2022-08-07T13:36:01.371Z,0.50
2022-08-07T13:38:35.377Z,0.60
2022-08-07T13:41:31.167Z,0.50
2022-08-07T13:44:02.351Z,0.95
2022-08-07T13:46:38.873Z,0.65
2022-08-07T13:50:33.237Z,0.82
2022-08-07T13:52:30.626Z,0.82
2022-08-07T13:55:00.602Z,0.55
2022-08-07T13:57:32.074Z,0.50
2022-08-07T14:00:08.090Z,0.50
2022-08-07T14:02:51.203Z,0.30
2022-08-07T14:05:23.690Z,0.38
2022-08-07T14:08:01.354Z,0.40
2022-08-07T14:10:41.745Z,0.40
2022-08-07T14:13:16.197Z,0.52
2022-08-07T14:15:50.494Z,0.60
2022-08-07T14:18:30.710Z,0.30
2022-08-07T14:22:02.259Z,0.40
2022-08-07T14:24:33.310Z,0.52
2022-08-07T14:28:10.308Z,0.43
2022-08-07T14:30:07.620Z,0.60
2022-08-07T14:32:45.801Z,0.40
2022-08-07T14:35:43.178Z,0.30
2022-08-07T14:38:09.719Z,0.38
2022-08-07T14:41:04.191Z,0.40
2022-08-07T14:46:31.466Z,0.30
2022-08-07T14:52:03.048Z,0.73
2022-08-07T14:57:24.985Z,0.50
2022-08-07T15:00:12.771Z,0.30
2022-08-07T15:03:16.595Z,0.40
2022-08-07T15:05:54.358Z,0.40
2022-08-07T15:08:53.010Z,0.50
2022-08-07T15:16:54.926Z,0.40
2022-08-07T15:22:53.572Z,0.50
2022-08-07T15:25:36.632Z,0.55
2022-08-07T15:28:32.504Z,0.60
2022-08-07T15:33:45.998Z,0.60
2022-08-07T15:37:03.245Z,0.40
2022-08-07T15:39:14.419Z,0.40
2022-08-07T15:44:52.490Z,0.50
2022-08-07T15:48:00.447Z,0.35
2022-08-07T15:50:37.669Z,0.50
2022-08-07T15:53:17.134Z,0.45
2022-08-07T15:56:02.365Z,0.40
2022-08-07T15:58:52.098Z,0.40
2022-08-07T16:01:24.047Z,0.40
2022-08-07T16:04:14.588Z,0.40
2022-08-07T16:06:42.333Z,0.40
2022-08-07T16:09:22.670Z,0.40
2022-08-07T16:11:57.153Z,0.40
2022-08-07T16:14:50.852Z,0.30
2022-08-07T16:18:02.588Z,0.40
2022-08-07T16:20:44.328Z,0.50
2022-08-07T16:24:00.914Z,0.30
2022-08-07T16:26:30.800Z,0.30
2022-08-07T16:30:09.926Z,0.60
2022-08-07T16:32:34.506Z,0.75
2022-08-07T16:35:51.470Z,1.00
2022-08-07T16:38:11.480Z,2.70
2022-08-07T16:41:12.932Z,1.15
2022-08-07T16:44:06.303Z,0.70
2022-08-07T16:47:40.261Z,0.70
2022-08-07T16:50:39.151Z,0.40
2022-08-07T16:54:02.073Z,0.50
2022-08-07T16:56:32.163Z,0.50
2022-08-07T16:59:46.567Z,0.30
2022-08-07T17:02:51.435Z,0.30
2022-08-07T17:06:28.177Z,0.28
2022-08-07T17:09:14.333Z,0.40
2022-08-07T17:12:04.523Z,0.30
2022-08-07T17:14:41.559Z,0.20
2022-08-07T17:17:24.277Z,0.20
2022-08-07T17:22:39.145Z,0.20
2022-08-07T17:25:20.095Z,0.38
2022-08-07T17:28:19.667Z,0.30
2022-08-07T17:31:20.514Z,0.20
2022-08-07T17:34:32.894Z,0.20
2022-08-07T17:36:59.730Z,0.30
2022-08-07T17:40:08.114Z,0.20
2022-08-07T17:42:36.093Z,0.20
2022-08-07T17:45:37.580Z,0.20
2022-08-07T17:52:00.961Z,0.20
2022-08-07T17:54:55.376Z,0.22
2022-08-07T17:57:58.639Z,0.30
2022-08-07T18:00:33.321Z,0.20
2022-08-07T18:04:04.288Z,0.15
2022-08-07T18:06:37.245Z,0.15
2022-08-07T18:09:16.595Z,0.10
2022-08-07T18:12:16.578Z,0.35
2022-08-07T18:14:51.254Z,0.20
2022-08-07T18:18:39.795Z,0.30
2022-08-07T18:21:10.623Z,0.20
2022-08-07T18:26:24.214Z,0.30
2022-08-07T18:30:07.660Z,0.20
2022-08-07T18:32:07.525Z,0.20
2022-08-07T18:34:53.388Z,0.22
2022-08-07T18:38:57.382Z,0.30
2022-08-07T18:41:03.818Z,0.35
2022-08-07T18:44:19.846Z,0.30
2022-08-07T18:47:05.160Z,0.38
2022-08-07T18:50:31.746Z,0.20
2022-08-07T18:53:05.966Z,0.40
2022-08-07T18:55:57.649Z,0.20
2022-08-07T18:58:52.326Z,0.20
2022-08-07T19:02:18.037Z,0.20
2022-08-07T19:04:39.731Z,0.20
2022-08-07T19:07:53.781Z,0.20
2022-08-07T19:10:51.442Z,0.35
2022-08-07T19:13:39.893Z,0.43
2022-08-07T19:17:00.488Z,0.30
2022-08-07T19:19:32.095Z,0.45
2022-08-07T19:22:31.349Z,0.35
2022-08-07T19:25:06.238Z,0.50
2022-08-07T19:28:29.377Z,0.32
2022-08-07T19:30:55.247Z,0.30
2022-08-07T19:33:33.631Z,0.45
2022-08-07T19:36:08.674Z,0.40
2022-08-07T19:38:53.123Z,0.40
2022-08-07T19:41:44.317Z,0.40
2022-08-07T19:44:31.456Z,0.57
2022-08-07T19:47:15.363Z,0.40
2022-08-07T19:49:57.345Z,0.40
2022-08-07T19:52:27.989Z,0.30
2022-08-07T19:54:57.481Z,0.30
2022-08-07T19:58:02.985Z,0.40
2022-08-07T20:00:28.908Z,0.30
2022-08-07T20:03:35.549Z,0.40
2022-08-07T20:06:03.982Z,0.40
2022-08-07T20:08:35.913Z,0.30
2022-08-07T20:11:10.363Z,0.43
2022-08-07T20:13:53.817Z,0.38
2022-08-07T20:16:36.317Z,0.38
2022-08-07T20:19:10.998Z,0.55
2022-08-07T20:21:47.799Z,0.30
2022-08-07T20:24:21.101Z,0.43
2022-08-07T20:26:52.116Z,0.52
2022-08-07T20:29:48.338Z,0.50
2022-08-07T20:32:22.988Z,0.40
2022-08-07T20:34:56.496Z,0.70
2022-08-07T20:37:46.873Z,0.80
2022-08-07T20:40:31.373Z,0.30
2022-08-07T20:43:02.638Z,0.50
2022-08-07T20:46:28.620Z,0.45
2022-08-07T20:48:28.637Z,0.60
2022-08-07T20:51:03.245Z,0.60
2022-08-07T20:54:04.015Z,0.57
2022-08-07T20:56:30.297Z,0.43
2022-08-07T20:59:05.067Z,0.47
2022-08-07T21:01:46.012Z,0.45
2022-08-07T21:04:29.428Z,0.47
2022-08-07T21:07:04.122Z,0.50
2022-08-07T21:09:52.677Z,0.30
2022-08-07T21:12:31.838Z,0.60
2022-08-07T21:15:08.410Z,0.50
2022-08-07T21:18:02.710Z,0.50
2022-08-07T21:20:30.240Z,0.57
2022-08-07T21:23:07.421Z,0.85
2022-08-07T21:25:42.578Z,0.73
2022-08-07T21:28:48.786Z,0.77
2022-08-07T21:32:41.662Z,0.68
2022-08-07T21:34:48.592Z,0.55
2022-08-07T21:37:57.343Z,0.57
2022-08-07T21:40:38.208Z,0.75
2022-08-07T21:43:11.461Z,0.63
2022-08-07T21:46:08.986Z,0.80
2022-08-07T21:48:55.864Z,0.90
2022-08-07T21:51:27.346Z,0.60
2022-08-07T21:54:09.864Z,0.68
2022-08-07T22:00:03.118Z,0.70
2022-08-07T22:02:31.768Z,0.85
2022-08-07T22:05:02.784Z,0.60
2022-08-07T22:07:59.468Z,0.60
2022-08-07T22:10:26.191Z,0.63
2022-08-07T22:12:59.710Z,0.60
2022-08-07T22:16:39.867Z,0.70
2022-08-07T22:19:05.130Z,0.70
2022-08-07T22:22:01.695Z,0.93
2022-08-07T22:24:41.217Z,0.80
2022-08-07T22:27:20.917Z,0.57
2022-08-07T22:32:45.464Z,0.77
2022-08-07T22:35:13.825Z,0.50
2022-08-07T22:38:03.285Z,0.60
2022-08-07T22:40:50.511Z,0.60
2022-08-07T22:43:33.939Z,0.65
2022-08-07T22:47:03.025Z,0.95
2022-08-07T22:49:07.889Z,0.70
2022-08-07T22:51:57.384Z,0.70
2022-08-07T22:54:36.352Z,0.70
2022-08-07T22:57:25.719Z,0.55
2022-08-07T22:59:53.213Z,0.70
2022-08-07T23:02:59.833Z,0.73
2022-08-07T23:06:07.587Z,0.90
2022-08-07T23:10:05.915Z,0.70
2022-08-07T23:12:32.488Z,0.80
2022-08-07T23:15:07.975Z,0.70
2022-08-07T23:17:56.105Z,1.00
2022-08-07T23:20:52.365Z,0.70
2022-08-07T23:24:05.425Z,0.90
2022-08-07T23:26:23.353Z,0.70
2022-08-07T23:29:17.059Z,0.73
2022-08-07T23:34:20.709Z,0.77
2022-08-07T23:38:05.496Z,1.05
2022-08-07T23:40:47.007Z,1.02
2022-08-07T23:43:56.835Z,0.73
2022-08-07T23:47:05.418Z,0.70
2022-08-07T23:50:05.415Z,0.88
2022-08-07T23:53:06.514Z,0.85
2022-08-07T23:55:53.237Z,1.02
2022-08-07T23:58:43.508Z,1.10
